Aérodrome :
LOGIN :

S'inscrire | Disclaimer

   EN    FR    IT 

 










Légende :    VFR   VFR Marginal   IFR   IFR Intensif   IFR Très Intensif
Visi : 
Plafond : 
>= 8 km
>= 3000ft
5 à 8 km
1000 à 3000 ft
1500m à 5 km
500 à 1000 ft
800 à 1500m
200 à 500 ft
< 800m
< 200 ft
Symboles :   Orages  Brouillard  Fortes neiges  Fortes précipitations  Vent > 20 kt
SIGMETs :   Divers  Orages  Givrage  Turbulence  Onde Orograph.  Cendres Volcan.






- Altitude de l'aérodrome : 407 ft


EGDM - MoD Boscombe Down Amesbury

DERNIER METAR :
  • 291320Z 09009KT CAVOK 23/06 Q1025 NOSIG RMK BLU BLU

METARs EXPIRÉS :
  • 291250Z 09007KT CAVOK 22/07 Q1026 NOSIG RMK BLU BLU
  • 291220Z 10009KT CAVOK 22/07 Q1026 NOSIG RMK BLU BLU
  • 291150Z 10009KT CAVOK 22/06 Q1026 NOSIG RMK BLU BLU
  • 291050Z 12010KT CAVOK 22/08 Q1027 NOSIG RMK BLU BLU

TAF COR TAF EGDM
Valide du 29 à 12h jusqu'au 29 à 16h UTC


291054Z 2912/2916 09008KT CAVOK



MET'MAP, la Météo Aéronautique d'un coup d'oeil ! - Copyright ORBIFLY Décembre 2007 - Disclaimer

ORBIFLY MET'MAP TEAM :

Programmation & Développement : Alexandra Zaïnal
Sur une idée originale de : Baudouin d'Aumeries
Assistance à la programmation : Marc-Olivier Méhu
Soutien technique & logistique : Manuel Goepfert

Contact : metmap@orbifly.com




SOURCES & CREDITS :

   NOAA